OIKQ  Dayrestan  Airport

Iran

Add Bookmark
ICAO OIKQ
Type Airport
Status Operational
Latitude
26° 45' 16" N
26.754601
Longitude
55° 54' 8" E
55.902401
Local (GMT +3.5 ) UTC
Dec 7, 2016 05:51 pm Dec 7, 2016 14:21
Sunrise-Sunset Local UTC
Begin Civil Twilight 05:56 am 02:26
Sunrise 06:21 am 02:51
Sunset 04:54 pm 13:24
End Civil Twilight 05:20 pm 13:50
VFR
VFR
MVFR
MVFR
IFR
IFR
LIFR
LIFR
Unknown
No Data

Current Weather

METAR Observed MVFR
OIKQ 071400Z 24012KT 5000 BR FEW030 24/22 Q1015 Wed, Dec 7, 2016 @ 14:00 UTC
(21 Minutes ago)
Marginal Visual Flight Rules
Wind Visibility Clouds Conditions
240° at 12 knots (22 kph) 5,005 m
  • Few at 3,000 ft AGL
  • Mist
Temperatures Readings Precipitation
Current Temp
24°C
75°F
Dewpoint
22°C
72°F
Humidity 89%
Altimeter 29.97" Hg
Sea Level Pressure 1,015 mb
Field Elevation
12 m
39 ft
None Recorded

Additional weather within a 92.6km radius of OIKQ

Map ICAO Location
OIKB 69.8km NE (042°)
VFR
VFR
MVFR
MVFR
IFR
IFR
LIFR
LIFR
Unknown
No Data
-
-

CheckWX.com is intended as a tool to help pilots better visualize weather data. It is not intended as a substitute for an official weather briefing obtained from a Flight Service Station. CheckWX.com does not meet the FAA requirements for an official pre-flight weather briefing. Therefore, it's important that pilots still call and obtain an official FSS pre-flight weather briefing.

© 2007-2016 CheckWX.com
14:21:31 UTC